createdAt,value
2019-02-05T00:01:25.028Z,102307.01
2019-02-05T00:03:54.450Z,102315.66
2019-02-05T00:06:24.040Z,102312.67
2019-02-05T00:08:53.425Z,102308.37
2019-02-05T00:11:22.846Z,102309.69
2019-02-05T00:13:53.748Z,102316.17
2019-02-05T00:16:23.090Z,102317.48
2019-02-05T00:18:52.490Z,102320.07
2019-02-05T00:21:21.863Z,102320.94
2019-02-05T00:23:53.494Z,102325.27
2019-02-05T00:26:22.860Z,102325.25
2019-02-05T00:28:52.246Z,102321.81
2019-02-05T00:31:21.643Z,102314.49
2019-02-05T00:33:50.989Z,102310.63
2019-02-05T00:36:20.359Z,102311.52
2019-02-05T00:38:49.853Z,102313.23
2019-02-05T00:41:19.241Z,102307.20
2019-02-05T00:43:48.612Z,102311.53
2019-02-05T00:46:18.101Z,102306.38
2019-02-05T00:48:47.727Z,102309.80
2019-02-05T00:51:17.092Z,102305.08
2019-02-05T00:53:46.499Z,102310.69
2019-02-05T00:56:17.666Z,102310.25
2019-02-05T00:58:46.967Z,102314.14
2019-02-05T01:01:16.343Z,102308.55
2019-02-05T01:03:45.911Z,102314.12
2019-02-05T01:06:15.257Z,102316.70
2019-02-05T01:08:44.648Z,102321.88
2019-02-05T01:11:14.019Z,102329.63
2019-02-05T01:13:43.398Z,102333.93
2019-02-05T01:16:14.822Z,102336.95
2019-02-05T01:18:44.201Z,102339.11
2019-02-05T01:21:13.612Z,102339.53
2019-02-05T01:23:49.987Z,102339.09
2019-02-05T01:26:29.049Z,102357.62
2019-02-05T01:28:50.438Z,102364.94
2019-02-05T01:31:19.809Z,102368.37
2019-02-05T01:33:49.168Z,102373.98
2019-02-05T01:36:18.529Z,102381.27
2019-02-05T01:38:47.905Z,102377.86
2019-02-05T01:41:17.294Z,102378.28
2019-02-05T01:43:46.650Z,102372.69
2019-02-05T01:46:16.033Z,102369.22
2019-02-05T01:48:45.396Z,102367.52
2019-02-05T01:51:15.804Z,102368.38
2019-02-05T01:53:45.213Z,102369.67
2019-02-05T01:56:15.818Z,102364.05
2019-02-05T01:58:45.215Z,102367.92
2019-02-05T02:01:14.675Z,102361.48
2019-02-05T02:03:44.012Z,102358.05
2019-02-05T02:06:13.394Z,102362.77
2019-02-05T02:08:42.756Z,102364.05
2019-02-05T02:11:12.109Z,102368.37
2019-02-05T02:13:44.536Z,102371.39
2019-02-05T02:16:13.906Z,102368.36
2019-02-05T02:18:43.251Z,102366.63
2019-02-05T02:21:12.705Z,102361.47
2019-02-05T02:23:42.060Z,102355.44
2019-02-05T02:26:12.721Z,102355.89
2019-02-05T02:28:42.262Z,102342.55
2019-02-05T02:31:11.768Z,102343.85
2019-02-05T02:33:41.159Z,102349.44
2019-02-05T02:36:10.577Z,102350.70
2019-02-05T02:38:39.997Z,102341.24
2019-02-05T02:41:09.354Z,102347.28
2019-02-05T02:43:38.965Z,102353.73
2019-02-05T02:46:08.332Z,102348.14
2019-02-05T02:48:37.726Z,102343.39
2019-02-05T02:51:07.092Z,102348.13
2019-02-05T02:53:36.484Z,102350.30
2019-02-05T02:56:05.851Z,102352.02
2019-02-05T02:58:35.398Z,102353.72
2019-02-05T03:01:04.938Z,102357.16
2019-02-05T03:03:34.453Z,102362.34
2019-02-05T03:06:05.265Z,102362.77
2019-02-05T03:08:34.621Z,102365.78
2019-02-05T03:11:04.005Z,102362.78
2019-02-05T03:13:33.648Z,102362.36
2019-02-05T03:16:02.995Z,102364.94
2019-02-05T03:18:32.367Z,102359.77
2019-02-05T03:21:04.036Z,102355.87
2019-02-05T03:23:33.416Z,102344.69
2019-02-05T03:26:02.784Z,102337.38
2019-02-05T03:28:32.156Z,102340.81
2019-02-05T03:31:02.044Z,102328.78
2019-02-05T03:33:31.675Z,102324.91
2019-02-05T03:36:00.959Z,102324.47
2019-02-05T03:38:30.309Z,102321.04
2019-02-05T03:41:10.724Z,102321.45
2019-02-05T03:43:42.822Z,102319.31
2019-02-05T03:46:13.649Z,102325.33
2019-02-05T03:48:45.540Z,102319.31
2019-02-05T03:51:37.759Z,102315.00
2019-02-05T03:54:22.237Z,102313.71
2019-02-05T03:57:32.320Z,102308.13
2019-02-05T04:00:44.258Z,102306.81
2019-02-05T04:03:38.993Z,102299.06
2019-02-05T04:06:41.416Z,102304.25
2019-02-05T04:09:26.187Z,102310.27
2019-02-05T04:12:36.470Z,102305.97
2019-02-05T04:15:26.828Z,102303.81
2019-02-05T04:18:36.060Z,102293.47
2019-02-05T04:21:50.969Z,102295.19
2019-02-05T04:24:48.574Z,102293.45
2019-02-05T04:28:01.805Z,102296.92
2019-02-05T04:31:03.300Z,102300.78
2019-02-05T04:33:52.802Z,102291.30
2019-02-05T04:36:31.229Z,102285.27
2019-02-05T04:39:36.509Z,102277.96
2019-02-05T04:42:34.573Z,102277.09
2019-02-05T04:45:38.729Z,102277.52
2019-02-05T04:49:06.996Z,102281.39
2019-02-05T04:52:01.218Z,102274.48
2019-02-05T04:55:07.378Z,102265.44
2019-02-05T04:58:02.045Z,102269.75
2019-02-05T05:01:15.904Z,102255.11
2019-02-05T05:04:08.012Z,102257.23
2019-02-05T05:07:03.995Z,102253.78
2019-02-05T05:09:58.768Z,102238.25
2019-02-05T05:12:31.539Z,102236.07
2019-02-05T05:15:01.223Z,102241.65
2019-02-05T05:17:30.591Z,102241.61
2019-02-05T05:20:00.520Z,102244.61
2019-02-05T05:22:30.117Z,102243.74
2019-02-05T05:25:00.332Z,102241.56
2019-02-05T05:27:29.707Z,102231.20
2019-02-05T05:29:59.296Z,102232.87
2019-02-05T05:32:29.071Z,102233.74
2019-02-05T05:34:58.441Z,102236.74
2019-02-05T05:37:27.818Z,102232.86
2019-02-05T05:39:57.144Z,102228.12
2019-02-05T05:42:27.282Z,102228.53
2019-02-05T05:44:56.656Z,102228.97
2019-02-05T05:47:26.010Z,102229.38
2019-02-05T05:49:55.381Z,102239.70
2019-02-05T05:52:24.763Z,102233.23
2019-02-05T05:54:54.122Z,102234.97
2019-02-05T05:57:23.495Z,102232.38
2019-02-05T05:59:53.987Z,102232.78
2019-02-05T06:02:23.372Z,102244.03
2019-02-05T06:04:52.738Z,102247.48
2019-02-05T06:07:22.086Z,102252.66
2019-02-05T06:09:51.467Z,102259.11
2019-02-05T06:12:20.828Z,102250.89
2019-02-05T06:14:50.347Z,102253.92
2019-02-05T06:17:19.707Z,102254.33
2019-02-05T06:19:49.088Z,102248.30
2019-02-05T06:22:18.423Z,102251.75
2019-02-05T06:24:47.768Z,102260.37
2019-02-05T06:27:17.128Z,102263.36
2019-02-05T06:29:46.811Z,102252.16
2019-02-05T06:32:16.179Z,102259.49
2019-02-05T06:34:45.528Z,102257.77
2019-02-05T06:37:14.905Z,102262.94
2019-02-05T06:39:44.271Z,102259.49
2019-02-05T06:42:13.689Z,102264.23
2019-02-05T06:44:43.221Z,102259.91
2019-02-05T06:47:12.639Z,102255.17
2019-02-05T06:49:42.010Z,102249.97
2019-02-05T06:52:11.369Z,102245.63
2019-02-05T06:54:40.727Z,102255.10
2019-02-05T06:57:10.094Z,102245.62
2019-02-05T06:59:39.473Z,102242.16
2019-02-05T07:02:09.808Z,102242.14
2019-02-05T07:04:39.193Z,102237.37
2019-02-05T07:07:10.958Z,102229.15
2019-02-05T07:09:40.351Z,102224.38
2019-02-05T07:12:09.716Z,102226.11
2019-02-05T07:14:39.091Z,102220.50
2019-02-05T07:17:08.613Z,102218.34
2019-02-05T07:19:38.083Z,102222.23
2019-02-05T07:22:07.452Z,102212.71
2019-02-05T07:24:39.304Z,102221.34
2019-02-05T07:27:08.757Z,102228.64
2019-02-05T07:29:38.216Z,102222.19
2019-02-05T07:32:08.071Z,102215.28
2019-02-05T07:34:38.170Z,102220.44
2019-02-05T07:37:07.531Z,102229.06
2019-02-05T07:39:37.040Z,102229.03
2019-02-05T07:42:06.681Z,102235.08
2019-02-05T07:44:36.072Z,102240.66
2019-02-05T07:47:05.618Z,102246.71
2019-02-05T07:49:35.266Z,102244.96
2019-02-05T07:52:05.006Z,102247.95
2019-02-05T07:54:34.481Z,102246.66
2019-02-05T07:57:03.906Z,102247.94
2019-02-05T07:59:33.376Z,102251.80
2019-02-05T08:02:02.816Z,102255.66
2019-02-05T08:04:32.218Z,102254.37
2019-02-05T08:07:01.858Z,102255.61
2019-02-05T08:09:31.442Z,102256.45
2019-02-05T08:12:00.847Z,102254.30
2019-02-05T08:14:30.315Z,102254.67
2019-02-05T08:16:59.696Z,102260.72
2019-02-05T08:19:29.080Z,102267.14
2019-02-05T08:22:00.796Z,102265.41
2019-02-05T08:24:30.307Z,102265.42
2019-02-05T08:26:59.721Z,102271.00
2019-02-05T08:29:29.108Z,102274.00
2019-02-05T08:31:58.561Z,102270.12
2019-02-05T08:34:28.121Z,102268.36
2019-02-05T08:36:58.637Z,102261.86
2019-02-05T08:39:28.275Z,102267.87
2019-02-05T08:41:58.117Z,102265.27
2019-02-05T08:44:27.600Z,102269.09
2019-02-05T08:46:57.187Z,102266.91
2019-02-05T08:49:26.819Z,102281.56
2019-02-05T08:51:57.272Z,102278.11
2019-02-05T08:54:26.781Z,102276.35
2019-02-05T08:56:56.652Z,102275.46
2019-02-05T08:59:26.176Z,102275.03
2019-02-05T09:01:55.753Z,102271.98
2019-02-05T09:04:25.210Z,102272.38
2019-02-05T09:06:56.099Z,102269.79
2019-02-05T09:09:27.405Z,102271.92
2019-02-05T09:11:57.056Z,102276.64
2019-02-05T09:14:26.638Z,102274.88
2019-02-05T09:16:56.055Z,102275.75
2019-02-05T09:19:25.498Z,102271.40
2019-02-05T09:21:55.106Z,102277.84
2019-02-05T09:24:25.759Z,102275.22
2019-02-05T09:26:55.392Z,102270.44
2019-02-05T09:29:33.501Z,102272.14
2019-02-05T09:31:58.388Z,102263.03
2019-02-05T09:34:27.846Z,102266.89
2019-02-05T09:36:57.441Z,102261.70
2019-02-05T09:39:27.008Z,102262.50
2019-02-05T09:41:56.575Z,102266.36
2019-02-05T09:44:26.257Z,102265.47
2019-02-05T09:46:55.897Z,102264.17
2019-02-05T09:49:25.433Z,102266.70
2019-02-05T09:51:56.142Z,102264.03
2019-02-05T09:54:25.648Z,102255.78
2019-02-05T09:56:56.356Z,102250.55
2019-02-05T09:59:28.140Z,102258.27
2019-02-05T10:01:57.672Z,102255.20
2019-02-05T10:04:28.378Z,102260.75
2019-02-05T10:06:58.083Z,102262.45
2019-02-05T10:09:27.702Z,102262.38
2019-02-05T10:11:57.213Z,102256.70
2019-02-05T10:14:26.794Z,102257.93
2019-02-05T10:16:56.572Z,102261.35
2019-02-05T10:19:26.192Z,102258.68
2019-02-05T10:21:56.156Z,102263.39
2019-02-05T10:24:25.697Z,102254.23
2019-02-05T10:26:55.222Z,102254.58
2019-02-05T10:29:24.827Z,102256.70
2019-02-05T10:31:54.537Z,102263.59
2019-02-05T10:34:33.843Z,102262.24
2019-02-05T10:36:55.253Z,102263.06
2019-02-05T10:39:24.784Z,102260.42
2019-02-05T10:41:54.585Z,102251.28
2019-02-05T10:44:24.107Z,102249.90
2019-02-05T10:46:53.768Z,102239.90
2019-02-05T10:49:24.223Z,102240.67
2019-02-05T10:51:53.651Z,102242.36
2019-02-05T10:54:23.150Z,102238.38
2019-02-05T10:56:52.682Z,102238.75
2019-02-05T10:59:22.284Z,102244.28
2019-02-05T11:01:51.875Z,102246.36
2019-02-05T11:04:23.110Z,102246.69
2019-02-05T11:06:54.942Z,102246.59
2019-02-05T11:09:24.389Z,102246.97
2019-02-05T11:11:53.833Z,102247.31
2019-02-05T11:14:23.504Z,102246.40
2019-02-05T11:16:53.064Z,102247.64
2019-02-05T11:19:22.823Z,102245.44
2019-02-05T11:21:52.202Z,102243.22
2019-02-05T11:24:21.828Z,102240.56
2019-02-05T11:26:51.481Z,102242.23
2019-02-05T11:29:21.021Z,102233.52
2019-02-05T11:31:52.267Z,102237.37
2019-02-05T11:34:22.095Z,102234.32
2019-02-05T11:36:51.563Z,102226.48
2019-02-05T11:39:21.028Z,102219.93
2019-02-05T11:41:50.545Z,102229.88
2019-02-05T11:44:20.205Z,102227.67
2019-02-05T11:46:50.891Z,102231.95
2019-02-05T11:49:20.244Z,102227.61
2019-02-05T11:51:49.864Z,102233.19
2019-02-05T11:54:21.597Z,102234.01
2019-02-05T11:56:52.955Z,102222.26
2019-02-05T11:59:23.923Z,102223.94
2019-02-05T12:01:53.421Z,102221.75
2019-02-05T12:04:22.807Z,102222.12
2019-02-05T12:06:54.074Z,102219.48
2019-02-05T12:09:26.042Z,102220.30
2019-02-05T12:11:55.618Z,102217.69
2019-02-05T12:14:25.095Z,102215.95
2019-02-05T12:16:54.625Z,102219.42
2019-02-05T12:19:24.024Z,102217.69
2019-02-05T12:21:54.063Z,102215.52
2019-02-05T12:24:23.592Z,102217.25
2019-02-05T12:26:53.179Z,102210.75
2019-02-05T12:29:22.711Z,102208.59
2019-02-05T12:31:52.231Z,102211.19
2019-02-05T12:34:21.777Z,102201.69
2019-02-05T12:36:51.205Z,102199.53
2019-02-05T12:39:21.024Z,102199.55
2019-02-05T12:41:50.569Z,102185.23
2019-02-05T12:44:20.169Z,102176.99
2019-02-05T12:46:49.692Z,102169.17
2019-02-05T12:49:19.222Z,102154.38
2019-02-05T12:51:50.592Z,102152.59
2019-02-05T12:54:20.207Z,102153.83
2019-02-05T12:56:49.610Z,102152.91
2019-02-05T12:59:19.163Z,102145.47
2019-02-05T13:01:48.701Z,102149.31
2019-02-05T13:04:18.057Z,102133.68
2019-02-05T13:06:47.548Z,102131.41
2019-02-05T13:09:17.215Z,102129.53
2019-02-05T13:11:46.635Z,102126.37
2019-02-05T13:14:17.992Z,102126.25
2019-02-05T13:16:47.527Z,102133.48
2019-02-05T13:19:18.488Z,102123.38
2019-02-05T13:21:48.299Z,102112.09
2019-02-05T13:24:17.908Z,102106.39
2019-02-05T13:26:47.360Z,102113.31
2019-02-05T13:29:19.028Z,102114.56
2019-02-05T13:31:48.572Z,102113.24
2019-02-05T13:34:18.145Z,102115.36
2019-02-05T13:36:47.616Z,102122.18
2019-02-05T13:39:17.147Z,102123.41
2019-02-05T13:41:46.593Z,102125.94
2019-02-05T13:44:36.500Z,102125.80
2019-02-05T13:47:06.428Z,102121.39
2019-02-05T13:49:35.854Z,102118.30
2019-02-05T13:52:05.794Z,102123.88
2019-02-05T13:54:36.817Z,102105.89
2019-02-05T13:57:06.346Z,102101.75
2019-02-05T13:59:35.712Z,102098.48
2019-02-05T14:02:06.721Z,102104.03
2019-02-05T14:04:36.353Z,102102.91
2019-02-05T14:07:06.146Z,102092.81
2019-02-05T14:09:35.662Z,102088.32
2019-02-05T14:12:05.270Z,102085.13
2019-02-05T14:14:37.557Z,102082.89
2019-02-05T14:17:09.959Z,102077.59
2019-02-05T14:19:39.430Z,102067.34
2019-02-05T14:22:08.892Z,102057.93
2019-02-05T14:24:40.214Z,102052.17
2019-02-05T14:27:09.713Z,102043.55
2019-02-05T14:29:41.343Z,102038.62
2019-02-05T14:32:11.691Z,102045.50
2019-02-05T14:34:41.163Z,102049.86
2019-02-05T14:37:10.842Z,102054.25
2019-02-05T14:39:40.409Z,102052.56
2019-02-05T14:42:11.776Z,102053.16
2019-02-05T14:44:41.272Z,102047.12
2019-02-05T14:47:10.845Z,102047.12
2019-02-05T14:49:40.354Z,102042.25
2019-02-05T14:52:09.865Z,102040.02
2019-02-05T14:54:39.340Z,102033.50
2019-02-05T14:57:09.119Z,102019.55
2019-02-05T14:59:38.779Z,102019.55
2019-02-05T15:02:08.728Z,102021.24
2019-02-05T15:04:38.375Z,102019.11
2019-02-05T15:07:08.361Z,102011.73
2019-02-05T15:09:38.183Z,102006.54
2019-02-05T15:12:09.685Z,101993.05
2019-02-05T15:14:39.216Z,101992.19
2019-02-05T15:17:10.578Z,101995.21
2019-02-05T15:19:41.623Z,102002.15
2019-02-05T15:22:11.190Z,101989.98
2019-02-05T15:24:41.047Z,101979.64
2019-02-05T15:27:12.374Z,101972.74
2019-02-05T15:29:42.861Z,101970.00
2019-02-05T15:32:14.063Z,101969.66
2019-02-05T15:34:46.444Z,101973.22
2019-02-05T15:37:15.878Z,101972.01
2019-02-05T15:39:45.361Z,101965.97
2019-02-05T15:42:15.288Z,101958.17
2019-02-05T15:44:45.855Z,101956.52
2019-02-05T15:47:15.374Z,101960.02
2019-02-05T15:49:44.872Z,101952.25
2019-02-05T15:52:16.337Z,101949.30
2019-02-05T15:54:45.978Z,101950.19
2019-02-05T15:57:15.329Z,101952.86
2019-02-05T15:59:45.690Z,101948.53
2019-02-05T16:02:15.443Z,101953.37
2019-02-05T16:04:44.824Z,101953.40
2019-02-05T16:07:14.421Z,101945.64
2019-02-05T16:09:43.786Z,101944.78
2019-02-05T16:12:13.177Z,101942.61
2019-02-05T16:14:42.539Z,101946.53
2019-02-05T16:17:11.933Z,101940.89
2019-02-05T16:19:41.301Z,101927.50
2019-02-05T16:22:10.966Z,101934.53
2019-02-05T16:24:40.342Z,101932.81
2019-02-05T16:27:09.788Z,101929.41
2019-02-05T16:29:39.342Z,101931.58
2019-02-05T16:32:17.260Z,101928.61
2019-02-05T16:34:39.820Z,101925.15
2019-02-05T16:37:09.539Z,101920.00
2019-02-05T16:39:38.921Z,101914.78
2019-02-05T16:42:08.343Z,101918.72
2019-02-05T16:44:37.775Z,101911.76
2019-02-05T16:47:07.304Z,101908.73
2019-02-05T16:49:36.833Z,101909.59
2019-02-05T16:52:06.630Z,101904.83
2019-02-05T16:54:36.099Z,101898.30
2019-02-05T16:57:05.498Z,101899.73
2019-02-05T16:59:35.075Z,101904.95
2019-02-05T17:02:04.901Z,101893.22
2019-02-05T17:04:34.279Z,101896.65
2019-02-05T17:07:04.032Z,101901.93
2019-02-05T17:09:33.436Z,101894.52
2019-02-05T17:12:03.025Z,101894.91
2019-02-05T17:14:32.465Z,101895.34
2019-02-05T17:17:02.068Z,101892.80
2019-02-05T17:19:31.968Z,101897.58
2019-02-05T17:22:02.464Z,101895.83
2019-02-05T17:24:33.727Z,101889.30
2019-02-05T17:27:04.568Z,101889.24
2019-02-05T17:29:35.091Z,101887.52
2019-02-05T17:32:07.733Z,101894.91
2019-02-05T17:34:36.353Z,101892.36
2019-02-05T17:37:06.778Z,101891.05
2019-02-05T17:39:36.161Z,101891.50
2019-02-05T17:42:06.089Z,101886.28
2019-02-05T17:44:35.543Z,101886.80
2019-02-05T17:47:05.211Z,101887.63
2019-02-05T17:49:36.178Z,101886.31
2019-02-05T17:52:06.328Z,101878.11
2019-02-05T17:54:35.859Z,101883.71
2019-02-05T17:57:05.455Z,101889.84
2019-02-05T17:59:35.001Z,101888.98
2019-02-05T18:02:05.212Z,101894.65
2019-02-05T18:04:34.871Z,101891.59
2019-02-05T18:07:04.387Z,101893.76
2019-02-05T18:09:33.782Z,101890.73
2019-02-05T18:12:04.926Z,101894.20
2019-02-05T18:14:34.689Z,101894.20
2019-02-05T18:17:04.238Z,101896.36
2019-02-05T18:19:33.623Z,101896.81
2019-02-05T18:22:03.010Z,101888.98
2019-02-05T18:24:32.563Z,101889.44
2019-02-05T18:27:02.106Z,101883.36
2019-02-05T18:29:31.835Z,101887.27
2019-02-05T18:32:02.674Z,101887.27
2019-02-05T18:34:32.167Z,101888.98
2019-02-05T18:37:01.528Z,101891.66
2019-02-05T18:39:31.724Z,101890.73
2019-02-05T18:42:02.995Z,101885.97
2019-02-05T18:44:32.777Z,101890.36
2019-02-05T18:47:02.622Z,101895.16
2019-02-05T18:49:32.199Z,101881.26
2019-02-05T18:52:01.936Z,101893.92
2019-02-05T18:54:31.486Z,101901.27
2019-02-05T18:57:01.168Z,101895.70
2019-02-05T18:59:30.682Z,101895.70
2019-02-05T19:02:00.246Z,101890.98
2019-02-05T19:04:29.748Z,101894.48
2019-02-05T19:07:03.701Z,101900.17
2019-02-05T19:09:32.340Z,101896.74
2019-02-05T19:12:04.889Z,101892.45
2019-02-05T19:14:32.954Z,101890.31
2019-02-05T19:17:05.563Z,101889.49
2019-02-05T19:19:36.066Z,101882.14
2019-02-05T19:22:06.146Z,101889.59
2019-02-05T19:24:43.956Z,101885.70
2019-02-05T19:27:13.920Z,101882.66
2019-02-05T19:29:43.296Z,101886.15
2019-02-05T19:32:14.295Z,101883.55
2019-02-05T19:34:43.668Z,101880.11
2019-02-05T19:37:13.100Z,101878.84
2019-02-05T19:39:42.459Z,101880.14
2019-02-05T19:42:12.118Z,101881.06
2019-02-05T19:44:43.219Z,101884.97
2019-02-05T19:47:20.986Z,101882.91
2019-02-05T19:49:55.891Z,101882.91
2019-02-05T19:52:27.690Z,101884.11
2019-02-05T19:54:56.784Z,101887.16
2019-02-05T19:57:26.187Z,101880.67
2019-02-05T19:59:55.787Z,101884.14
2019-02-05T20:02:27.143Z,101885.45
2019-02-05T20:04:56.506Z,101882.84
2019-02-05T20:07:25.913Z,101885.45
2019-02-05T20:09:55.320Z,101890.22
2019-02-05T20:12:24.961Z,101889.33
2019-02-05T20:14:54.367Z,101891.94
2019-02-05T20:17:23.753Z,101895.84
2019-02-05T20:19:53.114Z,101900.61
2019-02-05T20:22:22.607Z,101909.23
2019-02-05T20:24:52.013Z,101909.23
2019-02-05T20:27:21.394Z,101908.31
2019-02-05T20:29:51.038Z,101918.61
2019-02-05T20:32:20.529Z,101917.16
2019-02-05T20:34:51.556Z,101927.81
2019-02-05T20:37:21.018Z,101927.81
2019-02-05T20:39:50.607Z,101927.34
2019-02-05T20:42:20.052Z,101929.56
2019-02-05T20:44:49.778Z,101937.86
2019-02-05T20:47:19.404Z,101938.34
2019-02-05T20:49:48.950Z,101926.25
2019-02-05T20:52:18.477Z,101936.30
2019-02-05T20:54:47.960Z,101942.43
2019-02-05T20:57:17.533Z,101930.34
2019-02-05T20:59:46.967Z,101947.32
2019-02-05T21:02:16.547Z,101936.98
2019-02-05T21:04:48.645Z,101943.50
2019-02-05T21:07:18.011Z,101953.13
2019-02-05T21:09:47.442Z,101942.34
2019-02-05T21:12:16.817Z,101928.96
2019-02-05T21:14:46.196Z,101933.76
2019-02-05T21:17:15.755Z,101932.58
2019-02-05T21:19:45.105Z,101939.18
2019-02-05T21:22:14.445Z,101936.58
2019-02-05T21:24:44.598Z,101939.21
2019-02-05T21:27:13.947Z,101938.77
2019-02-05T21:29:43.328Z,101936.16
2019-02-05T21:32:12.954Z,101946.14
2019-02-05T21:34:42.356Z,101950.05
2019-02-05T21:37:11.719Z,101946.58
2019-02-05T21:39:41.128Z,101943.56
2019-02-05T21:42:10.492Z,101944.48
2019-02-05T21:44:40.121Z,101943.27
2019-02-05T21:47:09.571Z,101943.27
2019-02-05T21:49:38.997Z,101948.98
2019-02-05T21:52:08.441Z,101952.89
2019-02-05T21:54:37.813Z,101963.34
2019-02-05T21:57:07.298Z,101962.54
2019-02-05T21:59:36.648Z,101966.89
2019-02-05T22:02:06.105Z,101956.53
2019-02-05T22:04:35.756Z,101959.61
2019-02-05T22:07:05.205Z,101965.30
2019-02-05T22:09:34.590Z,101963.57
2019-02-05T22:12:04.041Z,101966.68
2019-02-05T22:14:33.408Z,101969.75
2019-02-05T22:17:02.743Z,101973.28
2019-02-05T22:19:32.100Z,101981.98
2019-02-05T22:22:01.436Z,101989.44
2019-02-05T22:24:30.819Z,101992.54
2019-02-05T22:27:01.648Z,101992.13
2019-02-05T22:29:31.090Z,101999.08
2019-02-05T22:32:00.424Z,102009.11
2019-02-05T22:34:38.980Z,102001.80
2019-02-05T22:37:03.509Z,102000.08
2019-02-05T22:39:31.926Z,101997.05
2019-02-05T22:42:01.450Z,102001.88
2019-02-05T22:44:30.874Z,101995.39
2019-02-05T22:47:00.210Z,102003.27
2019-02-05T22:49:29.565Z,102000.20
2019-02-05T22:51:59.040Z,102007.60
2019-02-05T22:54:28.484Z,102005.91
2019-02-05T22:56:57.858Z,102005.94
2019-02-05T22:59:27.594Z,102015.05
2019-02-05T23:02:01.430Z,102016.41
2019-02-05T23:04:56.132Z,102015.16
2019-02-05T23:07:27.244Z,102020.81
2019-02-05T23:10:33.765Z,102026.02
2019-02-05T23:13:06.633Z,102029.51
2019-02-05T23:15:36.513Z,102028.20
2019-02-05T23:18:06.430Z,102026.96
2019-02-05T23:20:35.895Z,102022.58
2019-02-05T23:23:05.445Z,102022.20
2019-02-05T23:25:34.824Z,102032.61
2019-02-05T23:28:04.154Z,102023.50
2019-02-05T23:30:33.630Z,102023.08
2019-02-05T23:33:02.968Z,102030.03
2019-02-05T23:35:32.879Z,102032.19
2019-02-05T23:38:02.269Z,102030.89
2019-02-05T23:40:31.612Z,102028.73
2019-02-05T23:43:00.970Z,102028.28
2019-02-05T23:45:30.342Z,102038.31
2019-02-05T23:47:59.684Z,102037.41
2019-02-05T23:50:29.100Z,102034.41
2019-02-05T23:52:58.476Z,102033.57
2019-02-05T23:55:29.916Z,102037.03
2019-02-05T23:57:59.257Z,102035.79
